Time;durP1;ratioP1;P1;durP2;ratioP2;P2;SDS_P1;SDS_P2;PMS_P1;PMS_P2;Temp;Humidity;BMP_temperature;BMP_pressure;BME280_temperature;BME280_humidity;BME280_pressure;Samples;Min_cycle;Max_cycle;Signal;HPM_P1;HPM_P2
2022/07/13 00:00:06;;;;;;;13.15;8.90;;;;;;;;;;5038088;28;20493;-85
2022/07/13 00:02:32;;;;;;;12.15;8.48;;;;;;;;;;5050332;28;20045;-83
2022/07/13 00:04:58;;;;;;;10.00;8.38;;;;;;;;;;5052931;28;20393;-82
2022/07/13 00:07:24;;;;;;;9.35;8.10;;;;;;;;;;5053639;28;20037;-82
2022/07/13 00:09:51;;;;;;;11.38;7.95;;;;;;;;;;5032768;28;20065;-83
2022/07/13 00:12:17;;;;;;;9.32;8.27;;;;;;;;;;5035459;28;20041;-83
2022/07/13 00:14:43;;;;;;;11.43;8.80;;;;;;;;;;5053744;28;20444;-83
2022/07/13 00:17:09;;;;;;;9.82;8.05;;;;;;;;;;5054067;28;20102;-83
2022/07/13 00:19:35;;;;;;;10.82;8.55;;;;;;;;;;5036232;28;20501;-82
2022/07/13 00:22:01;;;;;;;9.13;7.72;;;;;;;;;;5053330;28;20048;-83
2022/07/13 00:24:27;;;;;;;10.50;8.40;;;;;;;;;;5051120;28;20490;-83
2022/07/13 00:26:53;;;;;;;10.27;8.27;;;;;;;;;;5030845;28;20129;-83
2022/07/13 00:29:19;;;;;;;10.63;8.52;;;;;;;;;;5042495;28;20036;-83
2022/07/13 00:31:46;;;;;;;9.98;8.63;;;;;;;;;;5045283;28;20095;-84
2022/07/13 00:34:13;;;;;;;10.93;8.48;;;;;;;;;;5059791;28;20536;-82
2022/07/13 00:36:39;;;;;;;11.18;8.68;;;;;;;;;;5063566;28;20116;-83
2022/07/13 00:39:05;;;;;;;10.15;8.73;;;;;;;;;;5035504;28;20048;-84
2022/07/13 00:41:31;;;;;;;10.05;8.90;;;;;;;;;;5037580;28;20185;-83
2022/07/13 00:44:07;;;;;;;9.52;8.40;;;;;;;;;;5036388;28;20053;-83
2022/07/13 00:46:34;;;;;;;14.00;9.13;;;;;;;;;;5036016;28;20135;-83
2022/07/13 00:49:00;;;;;;;11.85;9.15;;;;;;;;;;5036538;28;20063;-86
2022/07/13 00:51:27;;;;;;;11.70;9.02;;;;;;;;;;5053395;28;20406;-83
2022/07/13 00:53:53;;;;;;;10.43;8.77;;;;;;;;;;5031785;28;20037;-82
2022/07/13 00:56:20;;;;;;;9.93;8.43;;;;;;;;;;5053847;28;20037;-82
2022/07/13 00:58:46;;;;;;;8.80;7.90;;;;;;;;;;5052950;28;20108;-82
2022/07/13 01:01:12;;;;;;;10.77;7.68;;;;;;;;;;5035290;28;20037;-82
2022/07/13 01:03:38;;;;;;;9.25;7.68;;;;;;;;;;5035270;28;20073;-83
2022/07/13 01:06:06;;;;;;;9.27;7.70;;;;;;;;;;5037058;28;20390;-83
2022/07/13 01:08:34;;;;;;;10.13;7.78;;;;;;;;;;5036775;28;20474;-83
2022/07/13 01:11:00;;;;;;;10.57;7.45;;;;;;;;;;5051779;28;20549;-82
2022/07/13 01:13:26;;;;;;;8.52;7.30;;;;;;;;;;5061972;28;20041;-83
2022/07/13 01:15:52;;;;;;;10.77;7.72;;;;;;;;;;5049506;28;20047;-82
2022/07/13 01:18:19;;;;;;;10.23;7.97;;;;;;;;;;5053028;28;20523;-83
2022/07/13 01:20:45;;;;;;;9.27;7.80;;;;;;;;;;5052301;28;20387;-84
2022/07/13 01:23:12;;;;;;;10.82;7.45;;;;;;;;;;5035915;28;20099;-83
2022/07/13 01:25:38;;;;;;;8.77;7.82;;;;;;;;;;5052051;28;20032;-83
2022/07/13 01:28:04;;;;;;;9.13;7.55;;;;;;;;;;5051555;28;20065;-83
2022/07/13 01:30:30;;;;;;;9.63;7.57;;;;;;;;;;5052971;28;20448;-83
2022/07/13 01:32:57;;;;;;;8.35;6.75;;;;;;;;;;5051789;28;20040;-83
2022/07/13 01:35:23;;;;;;;9.02;7.43;;;;;;;;;;5036151;28;20045;-83
2022/07/13 01:37:50;;;;;;;8.80;7.32;;;;;;;;;;5084926;28;20044;-83
2022/07/13 01:40:16;;;;;;;8.27;7.30;;;;;;;;;;5051524;28;20053;-83
2022/07/13 01:42:47;;;;;;;14.10;7.60;;;;;;;;;;5051818;28;20065;-82
2022/07/13 01:45:14;;;;;;;8.60;7.28;;;;;;;;;;5049715;28;20053;-82
2022/07/13 01:47:41;;;;;;;9.23;7.30;;;;;;;;;;5086403;28;20405;-82
2022/07/13 01:50:08;;;;;;;9.38;7.13;;;;;;;;;;5052478;28;20029;-82
2022/07/13 01:52:35;;;;;;;10.18;6.80;;;;;;;;;;5051959;28;20127;-82
2022/07/13 01:55:02;;;;;;;10.68;7.05;;;;;;;;;;5047187;28;20550;-82
2022/07/13 01:57:28;;;;;;;10.93;7.85;;;;;;;;;;5052105;28;20041;-82
2022/07/13 01:59:58;;;;;;;8.82;7.32;;;;;;;;;;5035098;28;20037;-82
2022/07/13 02:02:24;;;;;;;10.50;7.28;;;;;;;;;;5050744;28;20408;-82
2022/07/13 02:04:50;;;;;;;10.15;7.40;;;;;;;;;;5052394;28;20101;-82
2022/07/13 02:07:16;;;;;;;9.35;7.22;;;;;;;;;;5040030;28;20040;-82
2022/07/13 02:09:42;;;;;;;9.18;7.18;;;;;;;;;;5050374;28;20123;-82
2022/07/13 02:12:08;;;;;;;11.07;6.95;;;;;;;;;;5051463;28;20039;-83
2022/07/13 02:14:34;;;;;;;10.63;7.40;;;;;;;;;;5034316;28;20049;-82
2022/07/13 02:17:00;;;;;;;8.55;7.05;;;;;;;;;;5052056;28;20044;-82
2022/07/13 02:19:26;;;;;;;9.02;7.15;;;;;;;;;;5035482;28;20569;-75
2022/07/13 02:21:52;;;;;;;8.90;7.18;;;;;;;;;;5069042;28;20115;-75
2022/07/13 02:24:19;;;;;;;8.88;7.10;;;;;;;;;;5082790;28;20049;-75
2022/07/13 02:26:45;;;;;;;8.63;6.93;;;;;;;;;;5066075;28;20051;-75
2022/07/13 02:29:11;;;;;;;12.40;7.13;;;;;;;;;;5032581;28;20029;-75
2022/07/13 02:31:37;;;;;;;9.15;7.60;;;;;;;;;;5051689;28;20393;-75
2022/07/13 02:34:03;;;;;;;9.50;7.18;;;;;;;;;;5051247;28;20044;-75
2022/07/13 02:36:29;;;;;;;9.70;7.07;;;;;;;;;;5051520;28;20037;-75
2022/07/13 02:38:55;;;;;;;10.48;7.63;;;;;;;;;;5049054;28;20075;-75
2022/07/13 02:41:21;;;;;;;9.23;6.82;;;;;;;;;;5051632;28;20385;-75
2022/07/13 02:43:48;;;;;;;9.85;7.72;;;;;;;;;;5050917;28;20048;-75
2022/07/13 02:46:14;;;;;;;9.13;7.18;;;;;;;;;;5034328;28;20087;-75
2022/07/13 02:48:40;;;;;;;8.85;7.28;;;;;;;;;;5050982;28;20041;-75
2022/07/13 02:51:06;;;;;;;10.95;7.75;;;;;;;;;;5050419;28;20115;-75
2022/07/13 02:53:32;;;;;;;9.00;6.95;;;;;;;;;;5050435;28;20409;-75
2022/07/13 02:55:58;;;;;;;8.27;6.95;;;;;;;;;;5034417;28;20044;-75
2022/07/13 02:58:25;;;;;;;7.72;6.93;;;;;;;;;;5072987;28;20045;-75
2022/07/13 03:00:51;;;;;;;9.10;6.93;;;;;;;;;;5034788;28;20044;-75
2022/07/13 03:03:17;;;;;;;9.82;7.00;;;;;;;;;;5034000;28;20481;-75
2022/07/13 03:05:43;;;;;;;11.65;7.22;;;;;;;;;;5049527;28;20088;-75
2022/07/13 03:08:09;;;;;;;8.55;7.20;;;;;;;;;;5050415;28;20520;-75
2022/07/13 03:10:35;;;;;;;8.55;7.00;;;;;;;;;;5051305;28;20055;-75
2022/07/13 03:13:01;;;;;;;10.88;7.07;;;;;;;;;;5048923;28;20049;-75
2022/07/13 03:15:28;;;;;;;9.50;7.13;;;;;;;;;;5050257;28;20051;-75
2022/07/13 03:17:54;;;;;;;7.90;6.45;;;;;;;;;;5050329;28;20091;-75
2022/07/13 03:20:20;;;;;;;9.00;6.53;;;;;;;;;;5067445;28;20041;-75
2022/07/13 03:22:49;;;;;;;9.07;7.00;;;;;;;;;;5050387;28;20049;-75
2022/07/13 03:25:15;;;;;;;9.85;7.10;;;;;;;;;;5034393;28;20098;-75
2022/07/13 03:27:41;;;;;;;9.15;6.88;;;;;;;;;;5049642;28;20041;-75
2022/07/13 03:30:08;;;;;;;8.10;6.43;;;;;;;;;;5049754;28;20041;-75
2022/07/13 03:32:34;;;;;;;8.13;6.70;;;;;;;;;;5083791;28;20072;-75
2022/07/13 03:35:00;;;;;;;7.90;6.25;;;;;;;;;;5051252;28;20056;-75
2022/07/13 03:37:26;;;;;;;9.40;6.45;;;;;;;;;;5032397;28;20111;-75
2022/07/13 03:39:52;;;;;;;8.95;6.50;;;;;;;;;;5049340;28;20048;-75
2022/07/13 03:42:18;;;;;;;7.75;6.45;;;;;;;;;;5066729;28;20437;-73
2022/07/13 03:44:44;;;;;;;8.07;6.10;;;;;;;;;;5033737;28;20091;-74
2022/07/13 03:47:10;;;;;;;7.63;6.00;;;;;;;;;;5050075;28;20043;-75
2022/07/13 03:49:36;;;;;;;7.28;6.07;;;;;;;;;;5049678;28;20536;-75
2022/07/13 03:52:03;;;;;;;8.55;6.10;;;;;;;;;;5051626;28;20511;-81
2022/07/13 03:54:29;;;;;;;7.50;5.72;;;;;;;;;;5051216;28;20045;-82
2022/07/13 03:56:55;;;;;;;9.27;5.57;;;;;;;;;;5067650;28;20041;-82
2022/07/13 03:59:21;;;;;;;8.43;6.00;;;;;;;;;;5049198;28;20048;-81
2022/07/13 04:01:47;;;;;;;8.32;5.97;;;;;;;;;;5048088;28;20041;-82
2022/07/13 04:04:13;;;;;;;7.95;6.25;;;;;;;;;;5038441;28;20116;-82
2022/07/13 04:06:39;;;;;;;7.95;6.45;;;;;;;;;;5046543;28;20556;-82
2022/07/13 04:09:05;;;;;;;7.05;6.10;;;;;;;;;;5046473;28;20041;-81
2022/07/13 04:11:31;;;;;;;8.10;6.50;;;;;;;;;;5048524;28;20049;-82
2022/07/13 04:13:57;;;;;;;8.68;6.20;;;;;;;;;;5033203;28;20040;-82
2022/07/13 04:16:24;;;;;;;8.40;6.13;;;;;;;;;;5033999;28;20105;-82
2022/07/13 04:18:50;;;;;;;8.90;6.15;;;;;;;;;;5050801;28;20044;-82
2022/07/13 04:21:16;;;;;;;7.55;5.82;;;;;;;;;;5033690;28;20064;-82
2022/07/13 04:23:42;;;;;;;9.10;6.22;;;;;;;;;;5050512;28;20086;-82
2022/07/13 04:26:08;;;;;;;8.77;6.03;;;;;;;;;;5052563;28;20047;-82
2022/07/13 04:28:34;;;;;;;7.60;5.97;;;;;;;;;;5051823;28;20397;-82
2022/07/13 04:31:00;;;;;;;9.55;6.30;;;;;;;;;;5049997;28;20037;-81
2022/07/13 04:33:26;;;;;;;6.95;5.40;;;;;;;;;;5050799;28;20108;-82
2022/07/13 04:35:52;;;;;;;8.57;5.55;;;;;;;;;;5054482;28;20065;-83
2022/07/13 04:38:18;;;;;;;6.55;5.45;;;;;;;;;;5052210;28;20037;-83
2022/07/13 04:40:46;;;;;;;7.70;5.32;;;;;;;;;;5034007;28;20065;-83
2022/07/13 04:43:12;;;;;;;6.60;5.25;;;;;;;;;;5052673;28;20525;-83
2022/07/13 04:45:38;;;;;;;8.27;5.75;;;;;;;;;;5054175;28;20060;-83
2022/07/13 04:48:05;;;;;;;7.60;5.20;;;;;;;;;;5053257;28;20500;-83
2022/07/13 04:50:31;;;;;;;6.82;5.47;;;;;;;;;;5066709;28;20079;-83
2022/07/13 04:52:57;;;;;;;9.00;5.85;;;;;;;;;;5038883;28;20115;-82
2022/07/13 04:55:23;;;;;;;7.38;5.70;;;;;;;;;;5055055;28;20155;-83
2022/07/13 04:57:49;;;;;;;9.18;6.30;;;;;;;;;;5055375;28;20052;-82
2022/07/13 05:00:16;;;;;;;11.18;5.90;;;;;;;;;;5054247;28;20048;-82
2022/07/13 05:02:42;;;;;;;7.88;5.75;;;;;;;;;;5053400;28;20053;-83
2022/07/13 05:05:09;;;;;;;8.27;5.88;;;;;;;;;;5053633;28;20048;-83
2022/07/13 05:07:35;;;;;;;14.48;6.32;;;;;;;;;;5053640;28;20032;-82
2022/07/13 05:10:01;;;;;;;8.07;5.57;;;;;;;;;;5054571;28;20489;-82
2022/07/13 05:12:27;;;;;;;8.82;6.20;;;;;;;;;;5052542;28;20036;-82
2022/07/13 05:14:53;;;;;;;7.20;6.18;;;;;;;;;;5037389;28;20084;-82
2022/07/13 05:17:19;;;;;;;10.15;6.15;;;;;;;;;;5053536;28;20045;-83
2022/07/13 05:19:45;;;;;;;7.53;6.20;;;;;;;;;;5053511;28;20044;-82
2022/07/13 05:22:11;;;;;;;9.40;5.93;;;;;;;;;;5035235;28;20041;-82
2022/07/13 05:24:43;;;;;;;9.93;6.40;;;;;;;;;;5053261;28;20041;-82
2022/07/13 05:27:09;;;;;;;8.35;5.93;;;;;;;;;;5036568;28;20397;-82
2022/07/13 05:29:35;;;;;;;8.50;6.38;;;;;;;;;;5050124;28;20034;-81
2022/07/13 05:32:01;;;;;;;9.05;6.50;;;;;;;;;;5045654;28;20037;-82
2022/07/13 05:34:27;;;;;;;9.15;6.30;;;;;;;;;;5051707;28;20044;-82
2022/07/13 05:36:57;;;;;;;9.95;6.20;;;;;;;;;;5070319;28;20041;-82
2022/07/13 05:39:23;;;;;;;8.52;6.53;;;;;;;;;;5035605;28;20044;-82
2022/07/13 05:41:49;;;;;;;11.65;7.10;;;;;;;;;;5035055;28;20037;-82
2022/07/13 05:44:15;;;;;;;10.93;6.82;;;;;;;;;;5033220;28;20075;-81
2022/07/13 05:46:41;;;;;;;12.65;6.65;;;;;;;;;;5037492;28;20503;-78
2022/07/13 05:49:07;;;;;;;12.23;6.43;;;;;;;;;;5048166;28;20489;-78
2022/07/13 05:51:33;;;;;;;11.25;6.93;;;;;;;;;;5039398;28;20402;-78
2022/07/13 05:53:59;;;;;;;8.25;6.40;;;;;;;;;;5032027;28;20493;-77
2022/07/13 05:56:25;;;;;;;10.73;7.53;;;;;;;;;;5022781;28;20128;-78
2022/07/13 05:58:51;;;;;;;10.70;7.65;;;;;;;;;;5034614;28;20041;-78
2022/07/13 06:01:18;;;;;;;9.10;7.47;;;;;;;;;;5038619;28;20037;-77
2022/07/13 06:03:44;;;;;;;13.43;8.10;;;;;;;;;;5026402;28;20053;-78
2022/07/13 06:06:10;;;;;;;12.77;8.20;;;;;;;;;;5038828;28;20033;-77
2022/07/13 06:08:38;;;;;;;9.40;7.65;;;;;;;;;;5034482;28;20128;-77
2022/07/13 06:11:04;;;;;;;11.35;7.88;;;;;;;;;;5046754;28;20513;-77
2022/07/13 06:13:30;;;;;;;10.68;7.80;;;;;;;;;;5052784;28;20477;-76
2022/07/13 06:15:57;;;;;;;13.85;7.63;;;;;;;;;;5080684;28;20045;-79
2022/07/13 06:18:23;;;;;;;10.85;7.50;;;;;;;;;;5030074;28;20127;-76
2022/07/13 06:20:49;;;;;;;14.40;7.30;;;;;;;;;;5043880;28;20424;-79
2022/07/13 06:23:16;;;;;;;8.32;6.20;;;;;;;;;;5046349;28;20037;-77
2022/07/13 06:25:45;;;;;;;12.18;7.03;;;;;;;;;;5043188;28;20112;-79
2022/07/13 06:28:11;;;;;;;8.10;6.80;;;;;;;;;;5047057;28;20394;-78
2022/07/13 06:30:37;;;;;;;45.80;7.57;;;;;;;;;;5044253;28;20041;-76
2022/07/13 06:33:04;;;;;;;9.55;6.90;;;;;;;;;;5042570;28;20464;-80
2022/07/13 06:35:30;;;;;;;10.48;6.72;;;;;;;;;;5051882;28;20083;-79
2022/07/13 06:37:57;;;;;;;7.85;5.85;;;;;;;;;;5041556;28;20163;-77
2022/07/13 06:40:23;;;;;;;7.85;6.20;;;;;;;;;;5037985;28;20040;-79
2022/07/13 06:42:49;;;;;;;10.20;5.70;;;;;;;;;;5067273;28;20067;-81
2022/07/13 06:45:15;;;;;;;8.10;5.35;;;;;;;;;;5068789;28;20049;-81
2022/07/13 06:47:42;;;;;;;10.82;6.65;;;;;;;;;;5045788;28;20068;-81
2022/07/13 06:50:08;;;;;;;12.88;6.20;;;;;;;;;;5048308;28;20041;-80
2022/07/13 06:52:36;;;;;;;7.95;6.00;;;;;;;;;;5051273;28;20441;-80
2022/07/13 06:55:03;;;;;;;8.80;5.47;;;;;;;;;;5048188;28;20045;-79
2022/07/13 06:57:29;;;;;;;7.28;5.35;;;;;;;;;;5046399;28;20075;-77
2022/07/13 06:59:55;;;;;;;7.80;5.63;;;;;;;;;;5068104;28;20041;-80
2022/07/13 07:02:21;;;;;;;10.60;6.22;;;;;;;;;;5034806;28;20395;-81
2022/07/13 07:04:47;;;;;;;8.77;5.45;;;;;;;;;;5017372;28;20045;-80
2022/07/13 07:07:13;;;;;;;8.88;5.60;;;;;;;;;;5049548;28;20040;-80
2022/07/13 07:09:39;;;;;;;10.77;5.78;;;;;;;;;;5067586;28;20052;-80
2022/07/13 07:12:05;;;;;;;9.63;6.00;;;;;;;;;;5047424;28;20437;-80
2022/07/13 07:14:32;;;;;;;7.60;6.13;;;;;;;;;;5033804;28;20044;-80
2022/07/13 07:16:59;;;;;;;7.28;5.70;;;;;;;;;;5051301;28;20045;-80
2022/07/13 07:19:25;;;;;;;9.13;5.70;;;;;;;;;;5051551;28;20405;-80
2022/07/13 07:21:51;;;;;;;8.82;6.50;;;;;;;;;;5033977;28;20386;-81
2022/07/13 07:24:17;;;;;;;9.00;6.07;;;;;;;;;;5051140;28;20063;-81
2022/07/13 07:26:43;;;;;;;9.70;6.35;;;;;;;;;;5050595;28;20049;-81
2022/07/13 07:29:09;;;;;;;9.25;6.10;;;;;;;;;;5051464;28;20041;-81
2022/07/13 07:31:35;;;;;;;8.88;5.75;;;;;;;;;;5050297;28;20037;-81
2022/07/13 07:34:01;;;;;;;8.07;4.93;;;;;;;;;;5050837;28;20049;-82
2022/07/13 07:36:27;;;;;;;7.70;5.40;;;;;;;;;;5050129;28;20047;-81
2022/07/13 07:38:54;;;;;;;8.75;5.40;;;;;;;;;;5050049;28;20055;-81
2022/07/13 07:41:20;;;;;;;9.30;5.50;;;;;;;;;;5050899;28;20037;-82
2022/07/13 07:43:46;;;;;;;8.82;5.40;;;;;;;;;;5030049;28;20052;-81
2022/07/13 07:46:13;;;;;;;9.85;5.28;;;;;;;;;;5032973;28;20112;-82
2022/07/13 07:48:39;;;;;;;9.35;6.00;;;;;;;;;;5049807;28;20041;-79
2022/07/13 07:51:05;;;;;;;8.77;5.43;;;;;;;;;;5049771;28;20087;-78
2022/07/13 07:53:31;;;;;;;7.10;5.20;;;;;;;;;;5051157;28;20477;-74
2022/07/13 07:55:58;;;;;;;7.93;5.07;;;;;;;;;;5031783;28;20075;-76
2022/07/13 07:58:24;;;;;;;7.45;5.15;;;;;;;;;;5039283;28;20129;-77
2022/07/13 08:00:50;;;;;;;6.70;5.40;;;;;;;;;;5039309;28;20045;-76
2022/07/13 08:03:16;;;;;;;7.50;5.47;;;;;;;;;;5035593;28;20049;-76
2022/07/13 08:05:47;;;;;;;10.68;6.10;;;;;;;;;;5022675;28;20102;-76
2022/07/13 08:08:13;;;;;;;7.20;5.80;;;;;;;;;;5037773;28;20500;-77
2022/07/13 08:10:39;;;;;;;8.27;5.65;;;;;;;;;;5042573;28;20041;-77
2022/07/13 08:13:05;;;;;;;8.20;5.97;;;;;;;;;;5050314;28;20053;-76
2022/07/13 08:15:31;;;;;;;8.68;5.45;;;;;;;;;;5067350;28;20501;-76
2022/07/13 08:17:58;;;;;;;7.65;5.38;;;;;;;;;;5049816;28;20068;-76
2022/07/13 08:20:24;;;;;;;13.23;5.97;;;;;;;;;;5017353;28;20048;-76
2022/07/13 08:22:51;;;;;;;7.25;5.80;;;;;;;;;;5049912;28;20120;-77
2022/07/13 08:25:17;;;;;;;9.10;6.40;;;;;;;;;;5053834;28;20041;-77
2022/07/13 08:27:43;;;;;;;7.75;5.72;;;;;;;;;;5036694;28;20047;-77
2022/07/13 08:30:11;;;;;;;10.82;6.22;;;;;;;;;;5032030;28;20079;-77
2022/07/13 08:32:37;;;;;;;10.70;6.50;;;;;;;;;;5043597;28;20104;-76
2022/07/13 08:40:33;;;;;;;7.57;5.80;;;;;;;;;;5064779;28;20045;-77
2022/07/13 08:43:00;;;;;;;6.30;5.00;;;;;;;;;;5041451;28;20064;-77
2022/07/13 08:45:26;;;;;;;9.57;6.50;;;;;;;;;;5045608;28;20033;-76
2022/07/13 08:47:52;;;;;;;8.75;5.60;;;;;;;;;;5031300;28;20038;-77
2022/07/13 08:50:20;;;;;;;9.55;5.25;;;;;;;;;;5044094;28;20402;-77
2022/07/13 08:52:47;;;;;;;11.00;5.20;;;;;;;;;;5052065;28;20049;-77
2022/07/13 08:55:13;;;;;;;7.80;5.10;;;;;;;;;;5042170;28;20041;-76
2022/07/13 08:57:39;;;;;;;6.90;5.15;;;;;;;;;;5063225;28;20048;-77
2022/07/13 09:00:11;;;;;;;7.13;5.25;;;;;;;;;;5081885;28;20067;-77
2022/07/13 09:02:38;;;;;;;6.75;5.35;;;;;;;;;;5041227;28;20120;-78
2022/07/13 09:05:05;;;;;;;6.82;4.95;;;;;;;;;;5076975;28;20040;-77
2022/07/13 09:07:31;;;;;;;6.10;4.50;;;;;;;;;;5061801;28;20547;-78
2022/07/13 09:09:59;;;;;;;7.05;3.90;;;;;;;;;;5043799;28;20045;-77
2022/07/13 09:12:25;;;;;;;5.05;3.17;;;;;;;;;;5035228;28;20041;-76
2022/07/13 09:14:56;;;;;;;4.85;3.10;;;;;;;;;;5053432;28;20049;-77
2022/07/13 09:17:29;;;;;;;4.78;2.63;;;;;;;;;;5036984;28;20043;-77
2022/07/13 09:19:55;;;;;;;4.75;2.50;;;;;;;;;;5052311;28;20044;-76
2022/07/13 09:22:21;;;;;;;6.45;2.60;;;;;;;;;;5020129;28;20040;-76
2022/07/13 09:24:48;;;;;;;5.68;2.63;;;;;;;;;;5054124;28;20044;-75
2022/07/13 09:27:14;;;;;;;5.95;2.53;;;;;;;;;;5054632;28;20037;-76
2022/07/13 09:29:40;;;;;;;4.80;2.50;;;;;;;;;;5050811;28;20065;-76
2022/07/13 09:32:08;;;;;;;6.38;2.58;;;;;;;;;;5063435;28;20094;-77
2022/07/13 09:34:54;;;;;;;3.83;2.10;;;;;;;;;;5028819;28;20041;-78
2022/07/13 09:37:24;;;;;;;4.18;2.25;;;;;;;;;;5036483;28;20118;-77
2022/07/13 09:40:00;;;;;;;6.35;2.70;;;;;;;;;;5035960;28;20073;-76
2022/07/13 09:42:30;;;;;;;8.27;2.55;;;;;;;;;;5083388;28;20038;-77
2022/07/13 09:47:49;;;;;;;3.25;1.90;;;;;;;;;;5052125;28;20045;-77
2022/07/13 09:50:17;;;;;;;8.02;2.88;;;;;;;;;;5051914;28;20102;-83
2022/07/13 09:52:44;;;;;;;4.53;2.05;;;;;;;;;;5051705;28;20049;-80
2022/07/13 09:55:12;;;;;;;3.42;1.70;;;;;;;;;;5053957;28;20037;-81
2022/07/13 09:57:46;;;;;;;5.25;1.92;;;;;;;;;;5052558;28;20045;-80
2022/07/13 10:00:17;;;;;;;5.88;1.77;;;;;;;;;;5022933;28;20028;-81
2022/07/13 10:02:43;;;;;;;3.20;1.60;;;;;;;;;;5050329;28;20124;-81
2022/07/13 10:05:10;;;;;;;3.88;1.90;;;;;;;;;;5052076;28;20040;-77
2022/07/13 10:07:37;;;;;;;4.50;1.40;;;;;;;;;;5035910;28;20515;-79
2022/07/13 10:10:07;;;;;;;5.20;1.83;;;;;;;;;;5069138;28;20059;-74
2022/07/13 10:12:36;;;;;;;5.47;1.70;;;;;;;;;;5050217;28;20048;-77
2022/07/13 10:15:06;;;;;;;3.40;1.70;;;;;;;;;;5051922;28;20095;-77
2022/07/13 10:17:32;;;;;;;5.53;1.80;;;;;;;;;;5052177;28;20124;-78
2022/07/13 10:20:02;;;;;;;4.75;1.80;;;;;;;;;;5051831;28;20440;-78
2022/07/13 10:22:31;;;;;;;3.85;1.73;;;;;;;;;;5050068;28;20120;-78
2022/07/13 10:24:58;;;;;;;4.00;1.60;;;;;;;;;;5051582;28;20048;-76
2022/07/13 10:27:28;;;;;;;3.35;1.70;;;;;;;;;;5052281;28;20045;-76
2022/07/13 10:29:55;;;;;;;4.57;1.65;;;;;;;;;;5051183;28;20047;-82
2022/07/13 10:32:22;;;;;;;3.50;1.85;;;;;;;;;;5051026;28;20064;-83
2022/07/13 10:34:58;;;;;;;4.75;2.13;;;;;;;;;;5035023;28;20423;-73
2022/07/13 10:37:26;;;;;;;4.68;1.95;;;;;;;;;;5051742;28;20048;-82
2022/07/13 10:40:11;;;;;;;4.53;1.90;;;;;;;;;;5050735;28;20049;-83
2022/07/13 10:42:37;;;;;;;;;;;;;;;;;;5062465;28;20040;-82
2022/07/13 10:45:24;;;;;;;5.15;1.90;;;;;;;;;;5051252;28;20076;-82
2022/07/13 10:47:51;;;;;;;3.92;1.90;;;;;;;;;;5047573;28;20052;-83
2022/07/13 10:50:24;;;;;;;2.72;1.70;;;;;;;;;;5051689;28;20029;-83
2022/07/13 10:52:50;;;;;;;3.80;1.70;;;;;;;;;;5051798;28;20497;-77
2022/07/13 10:55:16;;;;;;;5.60;1.95;;;;;;;;;;5051267;28;20048;-78
2022/07/13 10:57:43;;;;;;;3.00;1.60;;;;;;;;;;5084730;28;20037;-77
2022/07/13 11:00:22;;;;;;;4.68;1.85;;;;;;;;;;5044628;28;20045;-77
2022/07/13 11:02:56;;;;;;;4.43;1.60;;;;;;;;;;5045637;28;20057;-77
2022/07/13 11:05:25;;;;;;;8.60;2.00;;;;;;;;;;5051283;28;20045;-77
2022/07/13 11:07:52;;;;;;;2.72;1.70;;;;;;;;;;5034918;28;20082;-76
2022/07/13 11:10:19;;;;;;;2.90;1.73;;;;;;;;;;5050332;28;20382;-76
2022/07/13 11:13:01;;;;;;;2.47;1.55;;;;;;;;;;5051279;28;20378;-82
2022/07/13 11:15:57;;;;;;;5.47;2.00;;;;;;;;;;5050919;28;20052;-82
2022/07/13 11:18:23;;;;;;;4.05;1.88;;;;;;;;;;5077759;28;20045;-76
2022/07/13 11:21:15;;;;;;;5.28;2.42;;;;;;;;;;5062759;28;20133;-75
2022/07/13 11:26:35;;;;;;;7.13;3.78;;;;;;;;;;5050938;28;20045;-74
2022/07/13 11:29:13;;;;;;;5.88;2.75;;;;;;;;;;5049206;28;20077;-76
2022/07/13 11:31:40;;;;;;;6.35;2.85;;;;;;;;;;5052206;28;20065;-77
2022/07/13 11:34:06;;;;;;;4.45;3.20;;;;;;;;;;5033735;28;20083;-75
2022/07/13 11:36:33;;;;;;;5.85;3.33;;;;;;;;;;5034581;28;20383;-79
2022/07/13 11:38:59;;;;;;;5.90;2.53;;;;;;;;;;5067050;28;20179;-77
2022/07/13 11:41:25;;;;;;;7.00;2.63;;;;;;;;;;5032531;28;20512;-81
2022/07/13 11:43:52;;;;;;;4.53;2.15;;;;;;;;;;5050515;28;20525;-82
2022/07/13 11:46:23;;;;;;;6.25;2.45;;;;;;;;;;5033728;28;20047;-82
2022/07/13 11:48:57;;;;;;;6.18;2.03;;;;;;;;;;5050943;28;20053;-74
2022/07/13 11:51:23;;;;;;;;;;;;;;;;;;5040330;28;20037;-79
2022/07/13 11:53:49;;;;;;;4.30;2.22;;;;;;;;;;5050473;28;19924;-76
2022/07/13 11:56:16;;;;;;;5.45;2.35;;;;;;;;;;5050365;28;20041;-79
2022/07/13 11:58:45;;;;;;;5.35;1.92;;;;;;;;;;5035354;28;20397;-75
2022/07/13 12:01:15;;;;;;;4.22;2.10;;;;;;;;;;5054224;28;20037;-76
2022/07/13 12:03:41;;;;;;;5.60;2.20;;;;;;;;;;5054820;28;20131;-77
2022/07/13 12:06:14;;;;;;;4.20;2.30;;;;;;;;;;5054455;28;20041;-75
2022/07/13 12:08:41;;;;;;;3.78;2.25;;;;;;;;;;5040984;28;20371;-76
2022/07/13 12:11:08;;;;;;;5.40;2.28;;;;;;;;;;5053835;28;20178;-82
2022/07/13 12:13:36;;;;;;;5.75;1.85;;;;;;;;;;5037999;28;20568;-82
2022/07/13 12:16:02;;;;;;;3.03;2.00;;;;;;;;;;5037676;28;20120;-81
2022/07/13 12:18:29;;;;;;;6.05;1.88;;;;;;;;;;5054391;28;20037;-81
2022/07/13 12:20:55;;;;;;;4.10;1.70;;;;;;;;;;5054617;28;20041;-83
2022/07/13 12:23:22;;;;;;;3.78;1.70;;;;;;;;;;5053675;28;20048;-82
2022/07/13 12:26:03;;;;;;;5.68;1.75;;;;;;;;;;5054109;28;20037;-81
2022/07/13 12:28:30;;;;;;;4.35;1.90;;;;;;;;;;5054292;28;20041;-83
2022/07/13 12:31:00;;;;;;;3.30;1.83;;;;;;;;;;5071299;28;20033;-82
2022/07/13 12:33:26;;;;;;;4.03;1.80;;;;;;;;;;5053874;28;20440;-80
2022/07/13 12:36:06;;;;;;;3.72;2.25;;;;;;;;;;5053925;28;20041;-81
2022/07/13 12:38:32;;;;;;;2.30;1.63;;;;;;;;;;5054124;28;20063;-75
2022/07/13 12:41:03;;;;;;;3.72;1.70;;;;;;;;;;5053900;28;20045;-74
2022/07/13 12:43:30;;;;;;;4.68;1.80;;;;;;;;;;5036882;28;20048;-75
2022/07/13 12:45:57;;;;;;;3.45;1.80;;;;;;;;;;5053893;28;20123;-77
2022/07/13 12:48:24;;;;;;;5.88;2.08;;;;;;;;;;5053472;28;20129;-75
2022/07/13 12:51:12;;;;;;;3.47;1.80;;;;;;;;;;5052051;28;20041;-77
2022/07/13 12:53:47;;;;;;;4.93;1.90;;;;;;;;;;5034191;28;20033;-77
2022/07/13 12:56:13;;;;;;;4.97;1.80;;;;;;;;;;5048687;28;20067;-76
2022/07/13 12:58:44;;;;;;;4.35;1.90;;;;;;;;;;5047625;28;20367;-75
2022/07/13 13:01:10;;;;;;;4.00;2.10;;;;;;;;;;5064106;28;20049;-74
2022/07/13 13:03:37;;;;;;;7.22;2.10;;;;;;;;;;5046196;28;20083;-73
2022/07/13 13:06:04;;;;;;;4.72;1.90;;;;;;;;;;5049207;28;20049;-71
2022/07/13 13:08:30;;;;;;;3.70;2.00;;;;;;;;;;5046092;28;20045;-74
2022/07/13 13:10:56;;;;;;;3.50;2.00;;;;;;;;;;5051746;28;20555;-72
2022/07/13 13:13:22;;;;;;;5.32;2.15;;;;;;;;;;5053308;28;20045;-73
2022/07/13 13:15:48;;;;;;;6.20;2.08;;;;;;;;;;5053126;28;20040;-72
2022/07/13 13:18:14;;;;;;;3.75;2.03;;;;;;;;;;5066739;28;20543;-74
2022/07/13 13:20:40;;;;;;;5.38;2.20;;;;;;;;;;5049275;28;20393;-72
2022/07/13 13:23:06;;;;;;;4.80;1.85;;;;;;;;;;5042426;28;20386;-74
2022/07/13 13:25:34;;;;;;;3.90;2.20;;;;;;;;;;5036150;28;20039;-74
2022/07/13 13:28:00;;;;;;;3.50;1.80;;;;;;;;;;5035079;28;20048;-73
2022/07/13 13:30:44;;;;;;;3.92;1.77;;;;;;;;;;5047914;28;20059;-72
2022/07/13 13:33:14;;;;;;;6.83;1.90;;;;;;;;;;5043142;28;20037;-74
2022/07/13 13:35:40;;;;;;;3.22;1.70;;;;;;;;;;5027330;28;20283;-74
2022/07/13 13:38:06;;;;;;;3.20;1.70;;;;;;;;;;5040395;28;20077;-74
2022/07/13 13:40:33;;;;;;;4.38;1.80;;;;;;;;;;5043719;28;20406;-74
2022/07/13 13:42:59;;;;;;;3.80;1.90;;;;;;;;;;5034478;28;20501;-74
2022/07/13 13:45:25;;;;;;;3.30;1.98;;;;;;;;;;5052651;28;20068;-75
2022/07/13 13:47:52;;;;;;;4.65;2.00;;;;;;;;;;5025133;28;20048;-75
2022/07/13 13:50:18;;;;;;;4.57;2.00;;;;;;;;;;5023275;28;20038;-73
2022/07/13 13:52:44;;;;;;;4.75;1.70;;;;;;;;;;5044771;28;20526;-73
2022/07/13 13:55:10;;;;;;;6.38;2.30;;;;;;;;;;5051599;28;20033;-74
2022/07/13 13:57:36;;;;;;;4.88;2.05;;;;;;;;;;5019184;28;20048;-74
2022/07/13 14:00:03;;;;;;;6.75;2.13;;;;;;;;;;5048444;28;20041;-73
2022/07/13 14:02:29;;;;;;;5.97;2.20;;;;;;;;;;5041490;28;20064;-73
2022/07/13 14:04:55;;;;;;;3.65;1.90;;;;;;;;;;5045748;28;20041;-73
2022/07/13 14:07:21;;;;;;;4.22;1.95;;;;;;;;;;5041050;28;20033;-77
2022/07/13 14:09:48;;;;;;;4.95;2.30;;;;;;;;;;5034372;28;20124;-74
2022/07/13 14:12:14;;;;;;;6.38;2.13;;;;;;;;;;5050873;28;20048;-74
2022/07/13 14:14:40;;;;;;;3.50;1.98;;;;;;;;;;5052249;28;20400;-75
2022/07/13 14:17:06;;;;;;;2.63;1.77;;;;;;;;;;5051782;28;20497;-74
2022/07/13 14:19:32;;;;;;;6.57;2.60;;;;;;;;;;5050226;28;20078;-75
2022/07/13 14:21:58;;;;;;;4.47;2.00;;;;;;;;;;5030982;28;20056;-73
2022/07/13 14:24:24;;;;;;;6.15;2.28;;;;;;;;;;5067056;28;20045;-77
2022/07/13 14:26:51;;;;;;;4.72;2.00;;;;;;;;;;5049049;28;20497;-76
2022/07/13 14:29:17;;;;;;;6.05;2.00;;;;;;;;;;5048766;28;20071;-75
2022/07/13 14:31:43;;;;;;;3.78;1.98;;;;;;;;;;5032567;28;20033;-80
2022/07/13 14:34:09;;;;;;;6.80;2.33;;;;;;;;;;5028832;28;20375;-80
2022/07/13 14:36:35;;;;;;;6.97;2.08;;;;;;;;;;5060433;28;20091;-78
2022/07/13 14:39:01;;;;;;;5.30;2.10;;;;;;;;;;5047896;28;20076;-79
2022/07/13 14:41:27;;;;;;;4.90;1.98;;;;;;;;;;5051701;28;20091;-80
2022/07/13 14:43:53;;;;;;;5.55;2.10;;;;;;;;;;5052608;28;20413;-80
2022/07/13 14:46:22;;;;;;;5.07;1.95;;;;;;;;;;5058710;28;20076;-80
2022/07/13 14:48:49;;;;;;;5.78;1.95;;;;;;;;;;5086194;28;20072;-80
2022/07/13 14:51:15;;;;;;;5.18;1.85;;;;;;;;;;5037545;28;20086;-79